Аэропорт: Котлас. Котлас

ICAO: ULKK

METAR:
2013/07/19 07:00
ULKK 190700Z 22003MPS 6000 SCT026 18/11 Q1007 NOSIG RMK QFE751 31000060
METAR:
2011/12/21 03:33
TAF TAF ULKK 210230Z 2003/2112 17007G12MPS 2500 SHSN BR BKN005CB BKN070 530009 
      TEMPO 2103/2112 1000 SHSN FZRA BR BKN003 BKN005CB 640000